الصفحة الرئيسية
METAR-TAF:

METAR-TAF

مطار :

مطار سينتاني

جايابورا, إندونيسيا

دائرة عرض: 02-34-37S, خط طول: 140-30-58E, ارتفاع: 88 متر

مراقبة الطقس الحالي

تاريخ ووقت الإصدار 26 دقيقة قبل الساعة 05:30UTC
ريح 18 عقدة من الغرب
درجة الحرارة 32°درجة مئوية
الرطوبة 52%
ضغط 1005 hPa
الرؤية 10 كم أو أكثر
غيوم متفرقة على ارتفاع 1200 قدم

METAR: WAJJ 060530Z 28018KT 9999 SCT012 32/21 Q1005 NOSIG

زمن: 12:56 (05:56 UTC)


TAF: مفقودة

أرصاد الطقس والتوقعات من أكثر من 4000 مطار (تقارير الطقس للمطار METAR والتنبؤ بالطقس بالمطارTAF).

المحطات المتاحة هي النقط الصفراء والحمراء على الخريطة.

حرك المؤشر فوق النقطة لمعرفة اسم المحطة.

ثم انقر لمعرفة أرصاد وتوقعات الطقس.

لتغيير الخارطة: اضغط على الأزرار الخضراء مع رمز الصليب الأسود للتكبير. على الزر الأخضر مع شرطة للتصغير، أو على الأسهم الخضراء للخرائط المجاورة.


METAR-TAF: